createdAt,value
2023-03-20T00:00:23.286Z,8.40
2023-03-20T00:02:56.499Z,8.40
2023-03-20T00:05:25.562Z,8.50
2023-03-20T00:07:53.179Z,8.40
2023-03-20T00:10:27.463Z,8.40
2023-03-20T00:12:54.795Z,8.50
2023-03-20T00:15:38.574Z,8.50
2023-03-20T00:18:20.475Z,8.50
2023-03-20T00:20:54.485Z,8.50
2023-03-20T00:23:21.771Z,8.50
2023-03-20T00:25:48.629Z,8.50
2023-03-20T00:28:47.601Z,8.50
2023-03-20T00:31:35.385Z,8.40
2023-03-20T00:34:12.464Z,8.40
2023-03-20T00:36:45.519Z,8.40
2023-03-20T00:39:18.518Z,8.40
2023-03-20T00:42:00.772Z,8.40
2023-03-20T00:44:39.974Z,8.40
2023-03-20T00:47:27.526Z,8.40
2023-03-20T00:50:02.532Z,8.40
2023-03-20T00:52:29.350Z,8.40
2023-03-20T00:54:56.145Z,8.40
2023-03-20T00:57:36.550Z,8.40
2023-03-20T01:00:14.584Z,8.30
2023-03-20T01:02:41.444Z,8.30
2023-03-20T01:05:08.456Z,8.30
2023-03-20T01:07:41.555Z,8.30
2023-03-20T01:10:10.004Z,8.30
2023-03-20T01:12:44.604Z,8.20
2023-03-20T01:15:21.602Z,8.20
2023-03-20T01:17:55.571Z,8.20
2023-03-20T01:20:30.215Z,8.20
2023-03-20T01:23:03.570Z,8.10
2023-03-20T01:25:30.387Z,8.10
2023-03-20T01:27:58.138Z,8.10
2023-03-20T01:30:37.612Z,8.10
2023-03-20T01:33:26.573Z,8.10
2023-03-20T01:35:53.772Z,8.00
2023-03-20T01:38:24.409Z,8.00
2023-03-20T01:41:10.663Z,8.00
2023-03-20T01:43:37.483Z,7.90
2023-03-20T01:46:34.593Z,7.90
2023-03-20T01:49:08.063Z,7.90
2023-03-20T01:51:42.582Z,7.80
2023-03-20T01:54:19.628Z,7.80
2023-03-20T01:56:52.147Z,7.70
2023-03-20T01:59:44.620Z,7.70
2023-03-20T02:02:15.741Z,7.70
2023-03-20T02:04:52.651Z,7.70
2023-03-20T02:07:23.275Z,7.70
2023-03-20T02:09:50.416Z,7.70
2023-03-20T02:12:25.619Z,7.70
2023-03-20T02:14:53.112Z,7.70
2023-03-20T02:17:26.666Z,7.70
2023-03-20T02:20:05.459Z,7.70
2023-03-20T02:23:22.642Z,7.70
2023-03-20T02:26:10.379Z,7.70
2023-03-20T02:29:08.663Z,7.70
2023-03-20T02:32:32.759Z,7.80
2023-03-20T02:35:48.681Z,7.80
2023-03-20T02:38:57.792Z,7.70
2023-03-20T02:41:43.717Z,7.70
2023-03-20T02:44:28.664Z,7.80
2023-03-20T02:47:01.293Z,7.70
2023-03-20T02:49:53.713Z,7.70
2023-03-20T02:53:13.679Z,7.70
2023-03-20T02:55:54.728Z,7.70
2023-03-20T02:58:44.609Z,7.60
2023-03-20T03:01:34.725Z,7.60
2023-03-20T03:04:07.720Z,7.60
2023-03-20T03:06:44.743Z,7.50
2023-03-20T03:09:15.858Z,7.50
2023-03-20T03:11:56.822Z,7.50
2023-03-20T03:14:37.532Z,7.50
2023-03-20T03:17:13.771Z,7.50
2023-03-20T03:19:45.410Z,7.50
2023-03-20T03:22:12.532Z,7.40
2023-03-20T03:24:51.784Z,7.40
2023-03-20T03:27:23.538Z,7.30
2023-03-20T03:30:06.786Z,7.30
2023-03-20T03:32:43.814Z,7.30
2023-03-20T03:35:17.260Z,7.30
2023-03-20T03:38:05.822Z,7.30
2023-03-20T03:41:04.455Z,7.30
2023-03-20T03:43:41.813Z,7.30
2023-03-20T03:46:24.481Z,7.30
2023-03-20T03:49:03.103Z,7.30
2023-03-20T03:51:34.282Z,7.30
2023-03-20T03:54:16.817Z,7.40
2023-03-20T03:56:47.131Z,7.30
2023-03-20T03:59:54.812Z,7.30
2023-03-20T04:02:23.108Z,7.40
2023-03-20T04:05:00.889Z,7.30
2023-03-20T04:07:35.849Z,7.30
2023-03-20T04:10:03.483Z,7.30
2023-03-20T04:12:42.843Z,7.30
2023-03-20T04:15:16.833Z,7.30
2023-03-20T04:17:44.472Z,7.30
2023-03-20T04:20:18.883Z,7.30
2023-03-20T04:22:45.839Z,7.20
2023-03-20T04:25:25.908Z,7.20
2023-03-20T04:27:55.860Z,7.20
2023-03-20T04:30:29.894Z,7.20
2023-03-20T04:32:57.662Z,7.20
2023-03-20T04:35:30.892Z,7.20
2023-03-20T04:37:57.834Z,7.10
2023-03-20T04:40:30.887Z,7.10
2023-03-20T04:42:57.631Z,7.10
2023-03-20T04:45:30.971Z,7.10
2023-03-20T04:47:58.438Z,7.10
2023-03-20T04:50:25.246Z,7.10
2023-03-20T04:52:58.924Z,7.20
2023-03-20T04:55:26.175Z,7.10
2023-03-20T04:57:59.937Z,7.10
2023-03-20T05:00:26.878Z,7.20
2023-03-20T05:02:59.949Z,7.10
2023-03-20T05:05:34.168Z,7.20
2023-03-20T05:08:07.963Z,7.10
2023-03-20T05:10:34.853Z,7.20
2023-03-20T05:13:01.752Z,7.20
2023-03-20T05:15:35.205Z,7.20
2023-03-20T05:18:02.227Z,7.20
2023-03-20T05:20:36.002Z,7.20
2023-03-20T05:23:05.875Z,7.20
2023-03-20T05:25:39.963Z,7.20
2023-03-20T05:28:12.940Z,7.20
2023-03-20T05:30:39.825Z,7.20
2023-03-20T05:33:15.045Z,7.20
2023-03-20T05:35:42.237Z,7.10
2023-03-20T05:38:15.985Z,7.20
2023-03-20T05:40:42.979Z,7.20
2023-03-20T05:43:23.032Z,7.20
2023-03-20T05:45:49.850Z,7.20
2023-03-20T05:48:23.020Z,7.20
2023-03-20T05:50:49.964Z,7.20
2023-03-20T05:53:30.990Z,7.20
2023-03-20T05:55:57.886Z,7.20
2023-03-20T05:58:30.992Z,7.20
2023-03-20T06:00:58.570Z,7.20
2023-03-20T06:03:25.569Z,7.10
2023-03-20T06:05:59.028Z,7.10
2023-03-20T06:08:25.880Z,7.10
2023-03-20T06:10:59.002Z,7.10
2023-03-20T06:13:26.097Z,7.10
2023-03-20T06:15:59.101Z,7.10
2023-03-20T06:18:26.085Z,7.20
2023-03-20T06:21:04.068Z,7.20
2023-03-20T06:23:30.801Z,7.20
2023-03-20T06:25:57.543Z,7.20
2023-03-20T06:28:31.090Z,7.20
2023-03-20T06:31:05.082Z,7.20
2023-03-20T06:33:38.160Z,7.20
2023-03-20T06:36:12.045Z,7.30
2023-03-20T06:38:38.869Z,7.20
2023-03-20T06:41:21.456Z,7.30
2023-03-20T06:43:55.702Z,7.30
2023-03-20T06:46:29.167Z,7.30
2023-03-20T06:49:02.064Z,7.30
2023-03-20T06:51:35.101Z,7.30
2023-03-20T06:54:02.231Z,7.30
2023-03-20T06:56:35.084Z,7.40
2023-03-20T06:59:01.841Z,7.40
2023-03-20T07:01:35.125Z,7.40
2023-03-20T07:04:02.048Z,7.40
2023-03-20T07:06:35.139Z,7.30
2023-03-20T07:09:01.936Z,7.40
2023-03-20T07:11:28.942Z,7.40
2023-03-20T07:14:02.147Z,7.40
2023-03-20T07:16:29.024Z,7.40
2023-03-20T07:19:02.126Z,7.40
2023-03-20T07:21:29.439Z,7.40
2023-03-20T07:24:03.164Z,7.50
2023-03-20T07:26:30.270Z,7.50
2023-03-20T07:29:03.160Z,7.60
2023-03-20T07:31:31.301Z,7.60
2023-03-20T07:34:05.252Z,7.60
2023-03-20T07:36:39.246Z,7.60
2023-03-20T07:39:06.291Z,7.70
2023-03-20T07:41:39.205Z,7.70
2023-03-20T07:44:08.265Z,7.70
2023-03-20T07:46:41.176Z,7.70
2023-03-20T07:49:14.179Z,7.80
2023-03-20T07:51:41.142Z,7.80
2023-03-20T07:54:15.216Z,7.80
2023-03-20T07:56:42.253Z,7.80
2023-03-20T07:59:16.204Z,7.90
2023-03-20T08:01:42.999Z,8.00
2023-03-20T08:04:16.260Z,8.00
2023-03-20T08:06:43.643Z,8.00
2023-03-20T08:09:17.211Z,8.10
2023-03-20T08:11:44.294Z,8.20
2023-03-20T08:14:18.230Z,8.30
2023-03-20T08:16:45.284Z,8.20
2023-03-20T08:19:19.233Z,8.20
2023-03-20T08:21:46.070Z,8.20
2023-03-20T08:24:19.267Z,8.20
2023-03-20T08:26:46.452Z,8.20
2023-03-20T08:29:20.314Z,8.20
2023-03-20T08:31:47.219Z,8.30
2023-03-20T08:34:22.157Z,8.20
2023-03-20T08:36:57.339Z,8.20
2023-03-20T08:39:24.208Z,8.20
2023-03-20T08:41:51.072Z,8.20
2023-03-20T08:44:24.306Z,8.10
2023-03-20T08:46:51.407Z,8.10
2023-03-20T08:49:25.321Z,8.10
2023-03-20T08:51:58.379Z,8.00
2023-03-20T08:54:32.336Z,8.00
2023-03-20T08:56:59.098Z,8.00
2023-03-20T08:59:32.314Z,8.00
2023-03-20T09:01:59.229Z,8.00
2023-03-20T09:04:32.317Z,8.00
2023-03-20T09:07:01.391Z,8.00
2023-03-20T09:09:29.690Z,8.10
2023-03-20T09:12:04.357Z,8.10
2023-03-20T09:14:31.471Z,8.00
2023-03-20T09:17:05.376Z,8.00
2023-03-20T09:19:32.252Z,8.00
2023-03-20T09:21:59.794Z,8.10
2023-03-20T09:24:33.496Z,8.20
2023-03-20T09:27:08.773Z,8.30
2023-03-20T09:29:42.348Z,8.30
2023-03-20T09:32:20.374Z,8.30
2023-03-20T09:34:47.822Z,8.40
2023-03-20T09:37:14.670Z,8.40
2023-03-20T09:39:48.397Z,8.40
2023-03-20T09:42:31.356Z,8.50
2023-03-20T09:45:10.386Z,8.50
2023-03-20T09:47:45.052Z,8.60
2023-03-20T09:50:30.384Z,8.60
2023-03-20T09:53:07.077Z,8.70
2023-03-20T09:55:43.470Z,8.90
2023-03-20T09:58:19.699Z,9.00
2023-03-20T10:00:53.401Z,9.10
2023-03-20T10:03:42.993Z,9.10
2023-03-20T10:06:21.427Z,9.20
2023-03-20T10:08:48.231Z,9.30
2023-03-20T10:11:41.550Z,9.30
2023-03-20T10:14:18.645Z,9.30
2023-03-20T10:17:04.560Z,9.30
2023-03-20T10:19:36.484Z,9.30
2023-03-20T10:22:33.689Z,9.20
2023-03-20T10:25:15.721Z,9.30
2023-03-20T10:27:58.433Z,9.30
2023-03-20T10:30:45.603Z,9.40
2023-03-20T10:33:47.440Z,9.50
2023-03-20T10:36:46.491Z,9.40
2023-03-20T10:39:44.460Z,9.40
2023-03-20T10:42:18.254Z,9.30
2023-03-20T10:44:58.799Z,9.40
2023-03-20T10:47:30.387Z,9.20
2023-03-20T10:50:09.616Z,9.30
2023-03-20T10:52:41.632Z,9.20
2023-03-20T10:55:22.546Z,9.20
2023-03-20T10:58:16.901Z,9.10
2023-03-20T11:00:50.524Z,9.10
2023-03-20T11:03:39.725Z,9.10
2023-03-20T11:06:24.482Z,9.10
2023-03-20T11:08:59.607Z,9.10
2023-03-20T11:11:36.463Z,9.10
2023-03-20T11:14:19.016Z,9.00
2023-03-20T11:16:56.579Z,9.00
2023-03-20T11:19:30.667Z,9.10
2023-03-20T11:22:00.397Z,9.10
2023-03-20T11:24:51.547Z,9.10
2023-03-20T11:27:36.863Z,9.30
2023-03-20T11:30:07.436Z,9.40
2023-03-20T11:32:51.937Z,9.60
2023-03-20T11:35:26.610Z,9.80
2023-03-20T11:38:02.565Z,9.80
2023-03-20T11:40:40.525Z,9.90
2023-03-20T11:43:13.252Z,9.90
2023-03-20T11:45:52.714Z,9.80
2023-03-20T11:48:21.848Z,9.70
2023-03-20T11:51:10.557Z,9.70
2023-03-20T11:53:41.792Z,9.70
2023-03-20T11:56:30.730Z,9.60
2023-03-20T11:59:09.436Z,9.60
2023-03-20T12:02:00.660Z,9.60
2023-03-20T12:04:31.823Z,9.60
2023-03-20T12:07:19.673Z,9.60
2023-03-20T12:10:14.034Z,9.50
2023-03-20T12:12:55.596Z,9.40
2023-03-20T12:15:33.774Z,9.30
2023-03-20T12:18:16.519Z,9.10
2023-03-20T12:21:01.881Z,9.10
2023-03-20T12:23:37.280Z,9.10
2023-03-20T12:26:15.631Z,9.10
2023-03-20T12:28:54.503Z,9.00
2023-03-20T12:31:39.759Z,9.00
2023-03-20T12:34:12.798Z,8.90
2023-03-20T12:36:53.647Z,8.90
2023-03-20T12:39:42.514Z,8.90
2023-03-20T12:42:46.627Z,8.80
2023-03-20T12:45:29.663Z,8.80
2023-03-20T12:48:24.501Z,8.80
2023-03-20T12:51:24.651Z,8.80
2023-03-20T12:54:13.734Z,8.80
2023-03-20T12:56:55.681Z,8.80
2023-03-20T12:59:29.202Z,8.90
2023-03-20T13:02:10.719Z,8.80
2023-03-20T13:04:55.728Z,8.80
2023-03-20T13:07:53.526Z,8.80
2023-03-20T13:10:32.688Z,8.80
2023-03-20T13:13:20.940Z,8.70
2023-03-20T13:16:07.756Z,8.80
2023-03-20T13:18:43.852Z,8.80
2023-03-20T13:21:46.673Z,8.80
2023-03-20T13:24:13.453Z,8.70
2023-03-20T13:27:03.744Z,8.70
2023-03-20T13:29:56.640Z,8.70
2023-03-20T13:32:41.817Z,8.70
2023-03-20T13:35:23.326Z,8.60
2023-03-20T13:38:22.788Z,8.60
2023-03-20T13:40:58.536Z,8.60
2023-03-20T13:43:44.799Z,8.60
2023-03-20T13:46:22.410Z,8.60
2023-03-20T13:48:58.777Z,8.60
2023-03-20T13:51:54.763Z,8.60
2023-03-20T13:55:00.744Z,8.60
2023-03-20T13:57:30.544Z,8.60
2023-03-20T14:00:52.813Z,8.50
2023-03-20T14:03:36.829Z,8.50
2023-03-20T14:06:42.143Z,8.50
2023-03-20T14:09:38.764Z,8.50
2023-03-20T14:12:21.780Z,8.50
2023-03-20T14:15:07.804Z,8.50
2023-03-20T14:17:40.834Z,8.50
2023-03-20T14:20:24.401Z,8.50
2023-03-20T14:22:57.830Z,8.50
2023-03-20T14:25:25.897Z,8.60
2023-03-20T14:28:14.864Z,8.60
2023-03-20T14:30:52.515Z,8.50
2023-03-20T14:33:25.960Z,8.60
2023-03-20T14:36:22.333Z,8.60
2023-03-20T14:39:17.852Z,8.50
2023-03-20T14:42:13.875Z,8.50
2023-03-20T14:45:24.884Z,8.60
2023-03-20T14:47:54.934Z,8.60
2023-03-20T14:50:44.832Z,8.60
2023-03-20T14:53:18.173Z,8.60
2023-03-20T14:55:59.869Z,8.60
2023-03-20T14:58:55.883Z,8.60
2023-03-20T15:01:22.822Z,8.60
2023-03-20T15:04:12.850Z,8.60
2023-03-20T15:07:01.534Z,8.60
2023-03-20T15:09:32.154Z,8.70
2023-03-20T15:12:10.965Z,8.70
2023-03-20T15:14:52.376Z,8.70
2023-03-20T15:17:48.908Z,8.70
2023-03-20T15:20:25.884Z,8.70
2023-03-20T15:23:04.949Z,8.70
2023-03-20T15:25:46.927Z,8.70
2023-03-20T15:28:30.940Z,8.70
2023-03-20T15:30:59.167Z,8.70
2023-03-20T15:33:39.931Z,8.70
2023-03-20T15:36:15.698Z,8.70
2023-03-20T15:38:51.949Z,8.80
2023-03-20T15:41:36.930Z,8.80
2023-03-20T15:44:16.078Z,8.80
2023-03-20T15:47:06.959Z,8.80
2023-03-20T15:49:33.992Z,8.80
2023-03-20T15:52:11.977Z,8.80
2023-03-20T15:54:49.001Z,8.80
2023-03-20T15:57:25.442Z,8.70
2023-03-20T15:59:58.992Z,8.80
2023-03-20T16:02:30.666Z,8.80
2023-03-20T16:04:57.622Z,8.80
2023-03-20T16:07:37.999Z,8.80
2023-03-20T16:10:17.521Z,8.90
2023-03-20T16:13:00.964Z,8.80
2023-03-20T16:15:31.451Z,8.80
2023-03-20T16:18:07.974Z,8.80
2023-03-20T16:20:40.469Z,8.80
2023-03-20T16:23:16.013Z,8.80
2023-03-20T16:25:42.871Z,8.80
2023-03-20T16:28:21.014Z,8.80
2023-03-20T16:30:47.844Z,8.80
2023-03-20T16:33:17.087Z,8.80
2023-03-20T16:35:54.018Z,8.80
2023-03-20T16:38:31.072Z,8.90
2023-03-20T16:41:36.025Z,8.90
2023-03-20T16:44:27.853Z,8.90
2023-03-20T16:47:10.057Z,8.90
2023-03-20T16:49:55.111Z,8.90
2023-03-20T16:52:34.055Z,8.90
2023-03-20T16:55:08.067Z,8.90
2023-03-20T16:57:36.950Z,9.00
2023-03-20T17:00:30.105Z,8.90
2023-03-20T17:03:06.718Z,8.90
2023-03-20T17:06:33.205Z,8.90
2023-03-20T17:09:19.037Z,9.00
2023-03-20T17:11:56.183Z,9.00
2023-03-20T17:14:22.940Z,8.90
2023-03-20T17:16:53.402Z,9.00
2023-03-20T17:19:27.063Z,8.90
2023-03-20T17:22:00.156Z,9.00
2023-03-20T17:24:27.193Z,9.00
2023-03-20T17:26:58.152Z,9.00
2023-03-20T17:29:31.372Z,9.00
2023-03-20T17:31:58.263Z,9.00
2023-03-20T17:34:25.250Z,9.00
2023-03-20T17:36:58.102Z,9.00
2023-03-20T17:39:24.924Z,9.00
2023-03-20T17:41:51.990Z,9.00
2023-03-20T17:44:25.550Z,9.00
2023-03-20T17:46:59.463Z,9.00
2023-03-20T17:49:27.547Z,9.00
2023-03-20T17:52:02.341Z,9.00
2023-03-20T17:54:29.319Z,9.00
2023-03-20T17:56:56.196Z,9.10
2023-03-20T17:59:31.181Z,9.10
2023-03-20T18:01:58.091Z,9.10
2023-03-20T18:04:24.925Z,9.10
2023-03-20T18:06:58.386Z,9.10
2023-03-20T18:09:25.816Z,9.10
2023-03-20T18:11:59.175Z,9.10
2023-03-20T18:14:25.956Z,9.10
2023-03-20T18:16:54.344Z,9.10
2023-03-20T18:19:32.225Z,9.10
2023-03-20T18:22:07.143Z,9.10
2023-03-20T18:24:44.128Z,9.10
2023-03-20T18:27:12.359Z,9.10
2023-03-20T18:29:46.186Z,9.10
2023-03-20T18:32:13.020Z,9.10
2023-03-20T18:34:48.184Z,9.20
2023-03-20T18:37:22.231Z,9.10
2023-03-20T18:39:49.109Z,9.20
2023-03-20T18:42:17.267Z,9.20
2023-03-20T18:44:50.334Z,9.20
2023-03-20T18:47:17.473Z,9.20
2023-03-20T18:49:44.293Z,9.20
2023-03-20T18:52:20.248Z,9.20
2023-03-20T18:54:47.069Z,9.20
2023-03-20T18:57:14.403Z,9.20
2023-03-20T18:59:47.363Z,9.20
2023-03-20T19:02:14.213Z,9.30
2023-03-20T19:04:41.323Z,9.20
2023-03-20T19:07:16.479Z,9.30
2023-03-20T19:09:43.260Z,9.30
2023-03-20T19:12:10.125Z,9.30
2023-03-20T19:14:43.275Z,9.30
2023-03-20T19:17:11.087Z,9.30
2023-03-20T19:19:37.865Z,9.30
2023-03-20T19:22:29.077Z,9.30
2023-03-20T19:24:56.910Z,9.30
2023-03-20T19:27:30.371Z,9.30
2023-03-20T19:30:11.350Z,9.30
2023-03-20T19:32:38.178Z,9.30
2023-03-20T19:38:05.306Z,9.30
2023-03-20T19:40:34.408Z,9.30
2023-03-20T19:43:15.596Z,9.30
2023-03-20T19:45:44.547Z,9.30
2023-03-20T19:48:49.686Z,9.30
2023-03-20T19:51:33.348Z,9.40
2023-03-20T19:54:06.369Z,9.40
2023-03-20T19:56:34.552Z,9.40
2023-03-20T19:59:01.596Z,9.40
2023-03-20T20:01:35.406Z,9.40
2023-03-20T20:04:09.302Z,9.40
2023-03-20T20:06:42.384Z,9.40
2023-03-20T20:09:09.677Z,9.40
2023-03-20T20:11:43.322Z,9.40
2023-03-20T20:14:23.477Z,9.40
2023-03-20T20:16:53.764Z,9.40
2023-03-20T20:19:28.484Z,9.40
2023-03-20T20:22:27.133Z,9.40
2023-03-20T20:24:49.343Z,9.40
2023-03-20T20:27:25.411Z,9.40
2023-03-20T20:29:59.464Z,9.40
2023-03-20T20:32:28.286Z,9.40
2023-03-20T20:40:42.879Z,9.40
2023-03-20T20:43:38.801Z,9.40
2023-03-20T20:46:03.187Z,9.40
2023-03-20T20:48:36.417Z,9.40
2023-03-20T20:51:03.498Z,9.40
2023-03-20T20:53:36.406Z,9.40
2023-03-20T20:56:03.451Z,9.40
2023-03-20T20:58:36.371Z,9.40
2023-03-20T21:01:10.441Z,9.40
2023-03-20T21:03:37.756Z,9.40
2023-03-20T21:06:12.428Z,9.40
2023-03-20T21:08:39.262Z,9.40
2023-03-20T21:11:13.403Z,9.40
2023-03-20T21:13:40.336Z,9.40
2023-03-20T21:16:15.522Z,9.40
2023-03-20T21:18:42.389Z,9.40
2023-03-20T21:21:18.452Z,9.40
2023-03-20T21:23:51.448Z,9.40
2023-03-20T21:26:18.646Z,9.40
2023-03-20T21:28:45.773Z,9.40
2023-03-20T21:31:31.240Z,9.40
2023-03-20T21:33:58.498Z,9.40
2023-03-20T21:36:32.463Z,9.40
2023-03-20T21:39:08.341Z,9.40
2023-03-20T21:41:45.002Z,9.40
2023-03-20T21:44:17.028Z,9.40
2023-03-20T21:47:37.952Z,9.30
2023-03-20T21:53:19.499Z,9.40
2023-03-20T22:01:52.496Z,9.30
2023-03-20T22:07:45.023Z,9.40
2023-03-20T22:10:35.353Z,9.30
2023-03-20T22:16:11.535Z,9.30
2023-03-20T22:19:29.194Z,9.30
2023-03-20T22:24:54.968Z,9.30
2023-03-20T22:27:45.999Z,9.30
2023-03-20T22:36:16.317Z,9.30
2023-03-20T22:46:52.624Z,9.30
2023-03-20T22:49:19.401Z,9.30
2023-03-20T22:52:11.245Z,9.30
2023-03-20T22:54:39.688Z,9.30
2023-03-20T22:57:12.581Z,9.20
2023-03-20T22:59:39.426Z,9.30
2023-03-20T23:02:12.563Z,9.30
2023-03-20T23:04:39.525Z,9.20
2023-03-20T23:07:13.585Z,9.20
2023-03-20T23:09:46.642Z,9.20
2023-03-20T23:12:13.443Z,9.20
2023-03-20T23:14:46.575Z,9.20
2023-03-20T23:17:13.679Z,9.20
2023-03-20T23:19:52.183Z,9.20
2023-03-20T23:22:29.665Z,9.20
2023-03-20T23:24:59.855Z,9.20
2023-03-20T23:27:36.660Z,9.20
2023-03-20T23:30:04.101Z,9.20
2023-03-20T23:32:37.648Z,9.20
2023-03-20T23:35:12.686Z,9.20
2023-03-20T23:37:50.748Z,9.20
2023-03-20T23:40:24.674Z,9.20
2023-03-20T23:42:51.435Z,9.20
2023-03-20T23:45:24.666Z,9.20
2023-03-20T23:47:51.604Z,9.20
2023-03-20T23:50:34.045Z,9.20
2023-03-20T23:53:20.408Z,9.20
2023-03-20T23:55:58.693Z,9.20
2023-03-20T23:58:26.756Z,9.20
